»·PEaware :: N13081 KEMT-KSBA

N13081 :: KEMT-KSBA

FLIGHT INFORMATION

Flight Status: Arrived
Operator: Privately registered:
United States
More flights under this callsign
Pilot: Craig H. (6968)
Aircraft: CESSNA 172 SKYHAWK
(C172)
More flights by this aircraft type
Origin: KEMT El Monte
United States
Destination: KSBA Santa Barbara Mun
United States
More flights between these airports :: More routes between these airports
Route: +
File this flight plan on PilotEdge
Remarks:
Altitude:
(Current/Filed)
8,500ft
Speed:
(Current/Filed)
0kts
Departed: 29-Jul-19 04:44 PM
Arrived: 29-Jul-19 05:40 PM
Distance/Time
Traveled:
92nm/0:56
Distance/Time
To Go:
Arrived

Flight Plot

Page will automatically refresh every two minutes.


Map Options




Map Legend


Flown Route
Filed Route
Departure Airport
Arrival Airport
Navaid (VOR, NDB)
Fix

Horizontal Profiles

Position Reports

Time Latitude Longitude Heading Altitude Ground
Speed
29-Jul-19 16:38 34.084255 -118.034498 236 299ft 2kts
29-Jul-19 16:39 34.086305 -118.034035 25 299ft 14kts
29-Jul-19 16:40 34.089905 -118.031958 26 299ft 11kts
29-Jul-19 16:42 34.090391 -118.031518 356 299ft 0kts
29-Jul-19 16:43 34.090847 -118.032051 247 299ft 7kts
29-Jul-19 16:44 34.078570 -118.040228 223 750ft 82kts
29-Jul-19 16:45 34.082616 -118.067925 280 1733ft 90kts
29-Jul-19 16:46 34.087965 -118.097474 275 2672ft 92kts
29-Jul-19 16:47 34.093352 -118.126895 279 3645ft 85kts
29-Jul-19 16:48 34.100314 -118.155575 284 4500ft 89kts
29-Jul-19 16:49 34.108993 -118.183457 288 5332ft 86kts
29-Jul-19 16:50 34.115988 -118.211268 282 6059ft 87kts
29-Jul-19 16:51 34.120540 -118.239751 280 6715ft 89kts
29-Jul-19 16:52 34.125114 -118.268917 276 7351ft 87kts
29-Jul-19 16:53 34.128350 -118.298520 283 7909ft 91kts
29-Jul-19 16:54 34.138697 -118.328407 286 8323ft 102kts
29-Jul-19 16:55 34.146876 -118.361932 283 8499ft 107kts
29-Jul-19 16:56 34.154182 -118.396125 282 8499ft 106kts
29-Jul-19 16:57 34.161271 -118.431034 282 8499ft 108kts
29-Jul-19 16:58 34.168363 -118.466476 282 8499ft 108kts
29-Jul-19 16:58 34.174056 -118.495079 282 8499ft 102kts
29-Jul-19 17:00 34.181782 -118.534168 282 8500ft 104kts
29-Jul-19 17:01 34.188537 -118.568388 282 8500ft 105kts
29-Jul-19 17:01 34.194186 -118.596983 282 8499ft 104kts
29-Jul-19 17:03 34.202077 -118.637022 282 8499ft 104kts
29-Jul-19 17:03 34.207639 -118.665354 282 8502ft 104kts
29-Jul-19 17:04 34.214378 -118.699714 282 8501ft 105kts
29-Jul-19 17:06 34.222254 -118.739871 282 8501ft 105kts
29-Jul-19 17:06 34.227875 -118.768537 282 8501ft 105kts
29-Jul-19 17:07 34.234624 -118.803085 282 8501ft 105kts
29-Jul-19 17:08 34.241347 -118.837601 282 8506ft 105kts
29-Jul-19 17:09 34.248048 -118.871948 282 8511ft 104kts
29-Jul-19 17:10 34.254747 -118.906365 282 8512ft 104kts
29-Jul-19 17:11 34.261380 -118.940518 282 8516ft 104kts
29-Jul-19 17:12 34.267981 -118.974579 283 8520ft 104kts
29-Jul-19 17:13 34.274603 -119.008800 283 8523ft 104kts
29-Jul-19 17:14 34.281157 -119.042738 283 8527ft 103kts
29-Jul-19 17:15 34.287729 -119.076781 283 8527ft 104kts
29-Jul-19 17:16 34.294296 -119.110862 283 8527ft 104kts
29-Jul-19 17:17 34.300843 -119.144860 283 8527ft 103kts
29-Jul-19 17:18 34.307390 -119.179002 283 8527ft 104kts
29-Jul-19 17:19 34.313976 -119.213285 283 8527ft 104kts
29-Jul-19 17:20 34.320545 -119.247629 283 8527ft 104kts
29-Jul-19 17:21 34.325848 -119.282324 279 8527ft 104kts
29-Jul-19 17:22 34.331276 -119.316873 283 8527ft 104kts
29-Jul-19 17:23 34.337591 -119.350774 283 8527ft 104kts
29-Jul-19 17:24 34.344375 -119.386565 284 8179ft 109kts
29-Jul-19 17:25 34.351068 -119.421961 284 7670ft 106kts
29-Jul-19 17:26 34.357471 -119.455947 285 7113ft 97kts
29-Jul-19 17:27 34.363369 -119.487256 285 6502ft 93kts
29-Jul-19 17:28 34.369193 -119.518177 285 5901ft 100kts
29-Jul-19 17:29 34.375586 -119.552305 285 5297ft 105kts
29-Jul-19 17:30 34.382088 -119.587036 286 4684ft 104kts
29-Jul-19 17:31 34.388422 -119.620932 287 4132ft 101kts
29-Jul-19 17:32 34.394608 -119.654085 287 3623ft 99kts
29-Jul-19 17:33 34.400622 -119.686343 288 3130ft 94kts
29-Jul-19 17:34 34.408720 -119.719013 295 2694ft 93kts
29-Jul-19 17:35 34.418365 -119.749129 287 2053ft 99kts
29-Jul-19 17:36 34.424192 -119.775597 284 1598ft 80kts
29-Jul-19 17:37 34.427921 -119.800373 276 978ft 70kts
29-Jul-19 17:38 34.428094 -119.824391 266 324ft 68kts
29-Jul-19 17:39 34.427815 -119.841634 300 17ft 12kts
29-Jul-19 17:40 34.429814 -119.842061 45 17ft 18kts
29-Jul-19 17:41 34.432051 -119.836009 22 17ft 14kts
29-Jul-19 17:42 34.432934 -119.835824 161 17ft 0kts
29-Jul-19 17:43 34.432934 -119.835824 161 17ft 0kts
29-Jul-19 17:44 34.432934 -119.835824 161 17ft 0kts

Navigation Log

Ident Type
Flight plan parsing failed, navigation log unavailable